createdAt,value
2018-11-04T00:00:59.691Z,27.05
2018-11-04T00:03:27.838Z,23.15
2018-11-04T00:05:56.009Z,27.52
2018-11-04T00:08:24.099Z,23.77
2018-11-04T00:10:52.216Z,26.10
2018-11-04T00:13:20.562Z,26.00
2018-11-04T00:15:48.583Z,24.67
2018-11-04T00:18:16.707Z,26.80
2018-11-04T00:20:44.860Z,25.08
2018-11-04T00:23:13.020Z,26.93
2018-11-04T00:25:41.130Z,27.87
2018-11-04T00:28:09.221Z,29.57
2018-11-04T00:30:37.356Z,28.27
2018-11-04T00:33:05.807Z,25.43
2018-11-04T00:35:33.929Z,24.60
2018-11-04T00:38:02.083Z,27.37
2018-11-04T00:40:30.187Z,26.33
2018-11-04T00:42:58.312Z,26.40
2018-11-04T00:45:26.553Z,28.47
2018-11-04T00:47:54.576Z,27.30
2018-11-04T00:50:22.695Z,28.50
2018-11-04T00:52:50.817Z,27.95
2018-11-04T00:55:18.945Z,27.27
2018-11-04T00:57:47.060Z,27.02
2018-11-04T01:00:17.207Z,27.20
2018-11-04T01:02:46.389Z,26.95
2018-11-04T01:05:14.721Z,28.87
2018-11-04T01:07:42.867Z,26.23
2018-11-04T01:10:11.383Z,27.27
2018-11-04T01:12:39.809Z,27.20
2018-11-04T01:15:09.052Z,29.05
2018-11-04T01:17:37.160Z,26.87
2018-11-04T01:20:07.158Z,22.98
2018-11-04T01:22:35.266Z,24.85
2018-11-04T01:25:03.377Z,26.55
2018-11-04T01:27:31.487Z,25.12
2018-11-04T01:29:59.597Z,24.70
2018-11-04T01:32:27.780Z,24.32
2018-11-04T01:34:55.877Z,24.52
2018-11-04T01:37:24.016Z,24.82
2018-11-04T01:39:52.140Z,24.27
2018-11-04T01:42:20.233Z,26.23
2018-11-04T01:44:48.364Z,25.08
2018-11-04T01:47:16.499Z,25.90
2018-11-04T01:49:44.634Z,25.65
2018-11-04T01:52:13.703Z,24.23
2018-11-04T01:54:41.816Z,25.15
2018-11-04T01:57:09.967Z,23.55
2018-11-04T01:59:38.055Z,25.82
2018-11-04T02:02:06.181Z,24.77
2018-11-04T02:04:34.403Z,21.48
2018-11-04T02:07:02.523Z,23.47
2018-11-04T02:09:30.643Z,23.50
2018-11-04T02:11:58.742Z,23.98
2018-11-04T02:14:26.852Z,25.17
2018-11-04T02:16:54.958Z,22.90
2018-11-04T02:19:23.074Z,24.07
2018-11-04T02:21:51.236Z,24.10
2018-11-04T02:24:19.330Z,22.80
2018-11-04T02:26:47.443Z,24.63
2018-11-04T02:29:15.552Z,22.27
2018-11-04T02:31:43.704Z,23.45
2018-11-04T02:34:11.803Z,25.10
2018-11-04T02:36:39.966Z,24.15
2018-11-04T02:39:08.558Z,25.92
2018-11-04T02:41:36.795Z,25.25
2018-11-04T02:44:05.163Z,25.52
2018-11-04T02:46:33.260Z,23.07
2018-11-04T02:49:01.363Z,24.25
2018-11-04T02:51:29.484Z,25.12
2018-11-04T02:53:57.577Z,25.70
2018-11-04T02:56:25.796Z,25.48
2018-11-04T02:58:53.942Z,22.25
2018-11-04T03:01:22.039Z,25.50
2018-11-04T03:03:50.147Z,21.73
2018-11-04T03:06:18.258Z,23.98
2018-11-04T03:08:46.407Z,26.93
2018-11-04T03:11:14.514Z,26.65
2018-11-04T03:13:42.964Z,24.67
2018-11-04T03:16:11.096Z,24.65
2018-11-04T03:18:39.198Z,26.27
2018-11-04T03:21:07.611Z,26.75
2018-11-04T03:23:35.767Z,25.35
2018-11-04T03:26:03.969Z,29.95
2018-11-04T03:28:32.066Z,28.80
2018-11-04T03:31:00.216Z,32.93
2018-11-04T03:33:28.369Z,24.77
2018-11-04T03:35:56.468Z,25.82
2018-11-04T03:38:24.571Z,34.90
2018-11-04T03:40:52.672Z,28.17
2018-11-04T03:43:20.768Z,31.93
2018-11-04T03:45:48.931Z,25.45
2018-11-04T03:48:17.237Z,27.65
2018-11-04T03:50:45.463Z,31.23
2018-11-04T03:53:13.589Z,29.12
2018-11-04T03:55:41.711Z,25.37
2018-11-04T03:58:09.825Z,28.80
2018-11-04T04:00:37.940Z,27.62
2018-11-04T04:03:06.024Z,26.15
2018-11-04T04:05:34.164Z,29.55
2018-11-04T04:08:02.276Z,27.22
2018-11-04T04:10:30.375Z,27.77
2018-11-04T04:12:58.491Z,31.35
2018-11-04T04:15:26.588Z,29.32
2018-11-04T04:17:54.696Z,28.75
2018-11-04T04:20:22.807Z,27.75
2018-11-04T04:22:50.896Z,32.05
2018-11-04T04:25:19.029Z,30.50
2018-11-04T04:27:47.137Z,27.62
2018-11-04T04:30:15.303Z,27.93
2018-11-04T04:32:43.439Z,25.80
2018-11-04T04:35:11.644Z,25.00
2018-11-04T04:37:40.217Z,29.12
2018-11-04T04:40:08.661Z,32.17
2018-11-04T04:42:36.780Z,26.25
2018-11-04T04:45:04.982Z,29.02
2018-11-04T04:47:33.279Z,32.78
2018-11-04T04:50:01.496Z,28.50
2018-11-04T04:52:29.595Z,28.65
2018-11-04T04:54:57.700Z,27.30
2018-11-04T04:57:25.832Z,29.30
2018-11-04T04:59:53.911Z,29.23
2018-11-04T05:02:22.015Z,27.93
2018-11-04T05:04:50.123Z,32.70
2018-11-04T05:07:18.223Z,29.50
2018-11-04T05:09:46.335Z,31.15
2018-11-04T05:12:14.502Z,31.10
2018-11-04T05:14:42.598Z,31.52
2018-11-04T05:17:10.795Z,30.48
2018-11-04T05:19:38.883Z,33.65
2018-11-04T05:22:07.452Z,31.93
2018-11-04T05:24:35.600Z,27.73
2018-11-04T05:27:03.703Z,27.17
2018-11-04T05:29:31.794Z,30.43
2018-11-04T05:31:59.912Z,29.02
2018-11-04T05:34:28.031Z,31.77
2018-11-04T05:36:56.147Z,30.12
2018-11-04T05:39:24.260Z,30.52
2018-11-04T05:41:52.352Z,30.65
2018-11-04T05:44:20.523Z,28.27
2018-11-04T05:46:48.686Z,30.80
2018-11-04T05:49:16.775Z,30.90
2018-11-04T05:51:44.884Z,31.33
2018-11-04T05:54:12.996Z,31.17
2018-11-04T05:56:41.112Z,31.00
2018-11-04T05:59:09.207Z,33.28
2018-11-04T06:01:37.315Z,28.10
2018-11-04T06:04:05.497Z,27.32
2018-11-04T06:06:33.616Z,27.30
2018-11-04T06:09:01.716Z,28.42
2018-11-04T06:11:29.827Z,30.77
2018-11-04T06:13:57.924Z,28.98
2018-11-04T06:16:26.027Z,28.85
2018-11-04T06:18:54.132Z,28.55
2018-11-04T06:21:22.233Z,27.40
2018-11-04T06:23:50.331Z,28.87
2018-11-04T06:26:18.446Z,28.70
2018-11-04T06:28:46.546Z,27.37
2018-11-04T06:31:14.695Z,28.52
2018-11-04T06:33:42.804Z,28.65
2018-11-04T06:36:10.934Z,27.10
2018-11-04T06:38:39.022Z,30.65
2018-11-04T06:41:07.188Z,28.70
2018-11-04T06:43:35.249Z,27.35
2018-11-04T06:46:03.338Z,28.47
2018-11-04T06:48:31.457Z,28.25
2018-11-04T06:50:59.550Z,27.62
2018-11-04T06:53:27.672Z,27.90
2018-11-04T06:55:55.780Z,29.87
2018-11-04T06:58:23.903Z,26.50
2018-11-04T07:00:52.016Z,25.77
2018-11-04T07:03:20.143Z,26.55
2018-11-04T07:05:48.238Z,26.27
2018-11-04T07:08:16.351Z,27.32
2018-11-04T07:10:44.461Z,23.80
2018-11-04T07:13:12.556Z,28.55
2018-11-04T07:15:40.656Z,26.23
2018-11-04T07:18:08.776Z,26.07
2018-11-04T07:20:36.903Z,31.23
2018-11-04T07:23:05.406Z,28.45
2018-11-04T07:25:33.589Z,29.70
2018-11-04T07:28:01.718Z,28.05
2018-11-04T07:30:29.836Z,26.37
2018-11-04T07:32:57.968Z,22.10
2018-11-04T07:35:26.079Z,24.12
2018-11-04T07:37:54.186Z,22.32
2018-11-04T07:40:22.411Z,25.45
2018-11-04T07:42:50.535Z,21.85
2018-11-04T07:45:18.664Z,22.22
2018-11-04T07:47:46.764Z,23.75
2018-11-04T07:50:15.385Z,22.90
2018-11-04T07:52:44.241Z,22.85
2018-11-04T07:55:12.356Z,23.45
2018-11-04T07:57:42.652Z,22.15
2018-11-04T08:00:13.892Z,22.25
2018-11-04T08:02:42.290Z,20.15
2018-11-04T08:05:11.360Z,20.35
2018-11-04T08:07:40.161Z,19.77
2018-11-04T08:10:10.368Z,19.60
2018-11-04T08:12:38.851Z,20.05
2018-11-04T08:15:06.995Z,18.17
2018-11-04T08:17:35.218Z,18.90
2018-11-04T08:20:03.401Z,22.98
2018-11-04T08:22:31.763Z,24.25
2018-11-04T08:24:59.892Z,23.52
2018-11-04T08:27:28.119Z,25.35
2018-11-04T08:29:56.445Z,21.37
2018-11-04T08:32:24.968Z,24.82
2018-11-04T08:34:53.260Z,22.48
2018-11-04T08:37:21.380Z,22.70
2018-11-04T08:39:49.562Z,26.42
2018-11-04T08:42:17.619Z,22.77
2018-11-04T08:44:45.764Z,21.10
2018-11-04T08:47:13.884Z,22.98
2018-11-04T08:49:41.980Z,25.30
2018-11-04T08:52:10.123Z,23.05
2018-11-04T08:54:38.283Z,21.85
2018-11-04T08:57:06.514Z,21.30
2018-11-04T08:59:34.615Z,22.17
2018-11-04T09:02:02.808Z,22.95
2018-11-04T09:04:30.915Z,22.77
2018-11-04T09:06:59.048Z,21.52
2018-11-04T09:09:27.335Z,23.30
2018-11-04T09:11:55.491Z,21.42
2018-11-04T09:14:23.680Z,18.98
2018-11-04T09:16:51.725Z,21.00
2018-11-04T09:19:19.840Z,22.20
2018-11-04T09:21:48.168Z,23.50
2018-11-04T09:24:16.204Z,20.23
2018-11-04T09:26:44.349Z,22.77
2018-11-04T09:29:12.632Z,18.30
2018-11-04T09:31:40.703Z,18.73
2018-11-04T09:34:08.827Z,19.85
2018-11-04T09:36:37.016Z,18.17
2018-11-04T09:39:07.353Z,19.90
2018-11-04T09:41:35.488Z,26.35
2018-11-04T09:44:03.603Z,19.40
2018-11-04T09:46:31.726Z,18.20
2018-11-04T09:48:59.829Z,21.45
2018-11-04T09:51:27.913Z,18.50
2018-11-04T09:53:56.043Z,16.32
2018-11-04T09:56:24.255Z,18.75
2018-11-04T09:58:52.353Z,21.60
2018-11-04T10:01:20.485Z,17.37
2018-11-04T10:03:48.638Z,17.57
2018-11-04T10:06:16.719Z,16.73
2018-11-04T10:08:44.825Z,18.00
2018-11-04T10:11:12.930Z,17.95
2018-11-04T10:13:41.039Z,17.62
2018-11-04T10:16:09.362Z,16.65
2018-11-04T10:18:37.424Z,21.42
2018-11-04T10:21:06.103Z,17.65
2018-11-04T10:23:33.648Z,17.10
2018-11-04T10:26:01.743Z,17.92
2018-11-04T10:28:29.985Z,16.37
2018-11-04T10:30:58.116Z,15.03
2018-11-04T10:33:26.227Z,19.50
2018-11-04T10:35:54.378Z,18.57
2018-11-04T10:38:22.464Z,17.95
2018-11-04T10:40:50.536Z,19.85
2018-11-04T10:43:18.663Z,16.00
2018-11-04T10:45:46.768Z,15.95
2018-11-04T10:48:14.854Z,19.05
2018-11-04T10:50:42.958Z,24.10
2018-11-04T10:53:11.091Z,18.10
2018-11-04T10:55:39.238Z,17.75
2018-11-04T10:58:07.340Z,16.23
2018-11-04T11:00:40.951Z,19.60
2018-11-04T11:03:09.055Z,17.82
2018-11-04T11:05:37.159Z,18.37
2018-11-04T11:08:05.530Z,18.87
2018-11-04T11:10:33.647Z,18.57
2018-11-04T11:13:01.759Z,18.37
2018-11-04T11:15:29.886Z,24.00
2018-11-04T11:17:57.992Z,19.00
2018-11-04T11:20:26.107Z,20.85
2018-11-04T11:22:54.431Z,20.37
2018-11-04T11:25:22.342Z,18.92
2018-11-04T11:27:50.511Z,20.52
2018-11-04T11:30:18.777Z,22.00
2018-11-04T11:32:46.938Z,20.25
2018-11-04T11:35:15.073Z,22.32
2018-11-04T11:37:43.220Z,21.87
2018-11-04T11:40:11.333Z,22.77
2018-11-04T11:42:39.547Z,19.75
2018-11-04T11:45:14.408Z,20.68
2018-11-04T11:47:42.543Z,20.68
2018-11-04T11:50:10.655Z,20.35
2018-11-04T11:52:38.898Z,20.62
2018-11-04T11:55:07.157Z,20.77
2018-11-04T11:57:35.349Z,19.42
2018-11-04T12:00:03.927Z,21.37
2018-11-04T12:02:32.047Z,17.82
2018-11-04T12:05:00.141Z,24.92
2018-11-04T12:07:28.231Z,22.25
2018-11-04T12:09:56.333Z,23.38
2018-11-04T12:12:24.427Z,21.85
2018-11-04T12:14:52.535Z,23.18
2018-11-04T12:17:20.670Z,23.57
2018-11-04T12:19:48.779Z,20.77
2018-11-04T12:22:16.927Z,20.97
2018-11-04T12:24:45.028Z,23.30
2018-11-04T12:27:13.128Z,22.65
2018-11-04T12:29:41.290Z,23.92
2018-11-04T12:32:09.656Z,24.18
2018-11-04T12:34:37.769Z,22.05
2018-11-04T12:37:05.892Z,23.85
2018-11-04T12:39:34.003Z,23.00
2018-11-04T12:42:02.120Z,22.77
2018-11-04T12:44:30.255Z,22.07
2018-11-04T12:46:58.364Z,20.80
2018-11-04T12:49:26.515Z,21.62
2018-11-04T12:51:54.607Z,23.50
2018-11-04T12:54:22.696Z,22.20
2018-11-04T12:56:50.823Z,23.90
2018-11-04T12:59:19.036Z,23.00
2018-11-04T13:01:47.233Z,24.63
2018-11-04T13:04:15.283Z,25.92
2018-11-04T13:06:43.422Z,25.05
2018-11-04T13:09:11.576Z,24.82
2018-11-04T13:11:40.174Z,24.95
2018-11-04T13:14:08.996Z,26.15
2018-11-04T13:16:37.131Z,24.15
2018-11-04T13:19:05.432Z,27.50
2018-11-04T13:21:34.661Z,22.40
2018-11-04T13:24:02.847Z,24.70
2018-11-04T13:26:31.011Z,23.30
2018-11-04T13:28:59.356Z,25.25
2018-11-04T13:31:27.499Z,24.67
2018-11-04T13:33:55.656Z,28.23
2018-11-04T13:36:23.808Z,28.90
2018-11-04T13:38:51.956Z,25.80
2018-11-04T13:41:20.157Z,28.98
2018-11-04T13:43:48.305Z,27.75
2018-11-04T13:46:16.516Z,25.62
2018-11-04T13:48:44.644Z,28.15
2018-11-04T13:51:12.827Z,26.97
2018-11-04T13:53:40.936Z,26.12
2018-11-04T13:56:09.165Z,27.40
2018-11-04T13:58:37.290Z,27.22
2018-11-04T14:01:05.656Z,28.23
2018-11-04T14:03:33.787Z,27.13
2018-11-04T14:06:01.919Z,27.52
2018-11-04T14:08:30.036Z,31.97
2018-11-04T14:10:58.166Z,31.55
2018-11-04T14:13:26.378Z,29.35
2018-11-04T14:15:54.451Z,28.45
2018-11-04T14:18:22.578Z,27.10
2018-11-04T14:20:50.703Z,26.55
2018-11-04T14:23:19.308Z,27.60
2018-11-04T14:25:47.460Z,28.02
2018-11-04T14:28:15.576Z,27.37
2018-11-04T14:30:43.759Z,26.30
2018-11-04T14:33:12.237Z,27.67
2018-11-04T14:35:40.386Z,25.43
2018-11-04T14:38:08.548Z,27.00
2018-11-04T14:40:36.980Z,30.48
2018-11-04T14:43:06.683Z,27.62
2018-11-04T14:45:34.852Z,30.25
2018-11-04T14:48:03.000Z,31.05
2018-11-04T14:50:31.229Z,28.38
2018-11-04T14:52:59.448Z,28.95
2018-11-04T14:55:27.503Z,29.50
2018-11-04T14:57:55.617Z,28.55
2018-11-04T15:00:23.739Z,28.15
2018-11-04T15:02:52.245Z,30.95
2018-11-04T15:05:20.365Z,30.55
2018-11-04T15:07:48.521Z,31.15
2018-11-04T15:10:16.666Z,29.30
2018-11-04T15:12:45.061Z,30.75
2018-11-04T15:15:16.037Z,31.97
2018-11-04T15:17:44.188Z,33.53
2018-11-04T15:20:12.658Z,31.60
2018-11-04T15:22:41.804Z,33.35
2018-11-04T15:25:09.960Z,31.62
2018-11-04T15:27:38.129Z,32.17
2018-11-04T15:30:07.267Z,31.52
2018-11-04T15:32:35.446Z,31.82
2018-11-04T15:35:03.689Z,30.82
2018-11-04T15:37:32.177Z,31.10
2018-11-04T15:40:00.396Z,33.45
2018-11-04T15:42:28.677Z,34.45
2018-11-04T15:44:56.935Z,33.90
2018-11-04T15:47:25.112Z,33.65
2018-11-04T15:49:53.273Z,35.63
2018-11-04T15:52:21.783Z,32.25
2018-11-04T15:54:52.454Z,32.28
2018-11-04T15:57:20.656Z,33.08
2018-11-04T15:59:48.764Z,36.80
2018-11-04T16:02:17.073Z,33.88
2018-11-04T16:04:45.247Z,36.10
2018-11-04T16:07:14.448Z,33.83
2018-11-04T16:09:42.573Z,40.88
2018-11-04T16:12:11.822Z,35.17
2018-11-04T16:14:40.477Z,35.98
2018-11-04T16:17:08.858Z,34.00
2018-11-04T16:19:37.108Z,36.63
2018-11-04T16:22:05.562Z,36.75
2018-11-04T16:24:33.810Z,40.48
2018-11-04T16:27:04.129Z,38.70
2018-11-04T16:29:32.372Z,38.38
2018-11-04T16:32:00.623Z,35.30
2018-11-04T16:34:28.697Z,38.00
2018-11-04T16:36:56.988Z,38.55
2018-11-04T16:39:25.315Z,40.10
2018-11-04T16:41:53.479Z,39.85
2018-11-04T16:44:21.806Z,42.78
2018-11-04T16:46:49.812Z,38.08
2018-11-04T16:49:18.154Z,44.67
2018-11-04T16:51:46.413Z,45.05
2018-11-04T16:54:14.557Z,40.90
2018-11-04T16:56:42.676Z,38.05
2018-11-04T16:59:10.827Z,42.60
2018-11-04T17:01:38.975Z,42.33
2018-11-04T17:04:07.247Z,41.85
2018-11-04T17:06:35.476Z,39.25
2018-11-04T17:09:04.036Z,42.08
2018-11-04T17:11:32.256Z,46.53
2018-11-04T17:14:00.368Z,43.20
2018-11-04T17:16:28.523Z,39.30
2018-11-04T17:18:56.717Z,50.08
2018-11-04T17:21:25.107Z,52.88
2018-11-04T17:23:53.256Z,59.80
2018-11-04T17:26:21.436Z,55.20
2018-11-04T17:28:49.639Z,57.85
2018-11-04T17:31:17.842Z,49.85
2018-11-04T17:33:45.995Z,53.58
2018-11-04T17:36:14.269Z,51.23
2018-11-04T17:38:42.419Z,42.45
2018-11-04T17:41:10.568Z,45.65
2018-11-04T17:43:38.740Z,47.15
2018-11-04T17:46:06.974Z,45.52
2018-11-04T17:48:35.185Z,44.33
2018-11-04T17:51:03.353Z,47.93
2018-11-04T17:53:31.512Z,50.85
2018-11-04T17:55:59.696Z,53.63
2018-11-04T17:58:28.019Z,58.42
2018-11-04T18:00:56.151Z,58.13
2018-11-04T18:03:24.268Z,62.78
2018-11-04T18:05:52.400Z,68.55
2018-11-04T18:08:20.577Z,61.75
2018-11-04T18:10:48.700Z,69.82
2018-11-04T18:13:17.769Z,64.03
2018-11-04T18:15:46.053Z,69.95
2018-11-04T18:18:14.233Z,79.67
2018-11-04T18:20:42.391Z,76.30
2018-11-04T18:23:10.715Z,72.45
2018-11-04T18:25:39.472Z,85.87
2018-11-04T18:28:07.751Z,98.20
2018-11-04T18:30:36.103Z,74.47
2018-11-04T18:33:08.687Z,71.80
2018-11-04T18:35:37.508Z,64.55
2018-11-04T18:38:05.821Z,76.40
2018-11-04T18:40:34.025Z,77.15
2018-11-04T18:43:02.507Z,77.62
2018-11-04T18:45:40.801Z,84.32
2018-11-04T18:48:11.276Z,85.00
2018-11-04T18:50:42.925Z,84.00
2018-11-04T18:53:11.055Z,74.67
2018-11-04T18:55:39.165Z,83.52
2018-11-04T18:58:08.397Z,93.55
2018-11-04T19:00:36.538Z,98.90
2018-11-04T19:03:04.887Z,100.05
2018-11-04T19:05:33.163Z,120.92
2018-11-04T19:08:01.132Z,98.95
2018-11-04T19:10:29.300Z,106.15
2018-11-04T19:12:57.420Z,78.37
2018-11-04T19:15:25.557Z,83.47
2018-11-04T19:17:53.694Z,88.65
2018-11-04T19:20:21.841Z,84.50
2018-11-04T19:22:49.978Z,101.12
2018-11-04T19:25:18.128Z,91.32
2018-11-04T19:27:46.311Z,89.37
2018-11-04T19:30:15.816Z,73.07
2018-11-04T19:32:44.340Z,83.70
2018-11-04T19:35:13.350Z,77.40
2018-11-04T19:37:41.560Z,74.45
2018-11-04T19:40:10.812Z,76.87
2018-11-04T19:42:39.513Z,70.45
2018-11-04T19:45:07.977Z,81.53
2018-11-04T19:47:36.140Z,73.07
2018-11-04T19:50:05.745Z,70.08
2018-11-04T19:52:34.039Z,65.00
2018-11-04T19:55:02.153Z,70.65
2018-11-04T19:57:30.924Z,71.45
2018-11-04T20:00:00.292Z,77.37
2018-11-04T20:02:29.054Z,69.60
2018-11-04T20:04:57.994Z,78.60
2018-11-04T20:07:26.475Z,66.70
2018-11-04T20:09:54.670Z,68.67
2018-11-04T20:12:28.205Z,67.75
2018-11-04T20:14:56.321Z,61.65
2018-11-04T20:17:24.510Z,76.95
2018-11-04T20:19:58.252Z,71.00
2018-11-04T20:22:26.343Z,66.60
2018-11-04T20:24:59.932Z,71.07
2018-11-04T20:27:28.432Z,63.85
2018-11-04T20:29:56.901Z,70.95
2018-11-04T20:32:30.567Z,56.88
2018-11-04T20:34:58.784Z,64.55
2018-11-04T20:37:27.046Z,61.77
2018-11-04T20:40:00.927Z,69.42
2018-11-04T20:42:29.574Z,67.78
2018-11-04T20:45:06.898Z,65.87
2018-11-04T20:47:55.328Z,57.55
2018-11-04T20:50:29.175Z,63.20
2018-11-04T20:53:04.336Z,56.35
2018-11-04T20:55:38.082Z,67.78
2018-11-04T20:58:07.670Z,62.00
2018-11-04T21:00:48.808Z,59.38
2018-11-04T21:03:19.825Z,63.52
2018-11-04T21:05:48.145Z,59.88
2018-11-04T21:08:16.428Z,49.00
2018-11-04T21:10:44.610Z,49.63
2018-11-04T21:13:12.811Z,53.90
2018-11-04T21:15:41.136Z,59.88
2018-11-04T21:18:09.303Z,57.95
2018-11-04T21:20:37.439Z,51.65
2018-11-04T21:23:11.253Z,52.45
2018-11-04T21:25:39.667Z,63.75
2018-11-04T21:28:07.669Z,52.78
2018-11-04T21:30:35.667Z,57.45
2018-11-04T21:33:03.820Z,53.68
2018-11-04T21:35:31.972Z,57.88
2018-11-04T21:38:00.148Z,59.48
2018-11-04T21:40:28.200Z,58.08
2018-11-04T21:42:56.380Z,60.05
2018-11-04T21:45:24.464Z,56.60
2018-11-04T21:47:52.580Z,56.18
2018-11-04T21:50:20.693Z,55.67
2018-11-04T21:52:48.884Z,59.55
2018-11-04T21:55:17.147Z,55.92
2018-11-04T21:57:45.105Z,54.58
2018-11-04T22:00:14.564Z,60.20
2018-11-04T22:02:42.824Z,52.80
2018-11-04T22:05:11.448Z,55.12
2018-11-04T22:07:40.324Z,53.10
2018-11-04T22:10:11.379Z,57.05
2018-11-04T22:12:39.860Z,49.15
2018-11-04T22:15:08.329Z,50.80
2018-11-04T22:17:36.736Z,53.50
2018-11-04T22:20:05.737Z,52.55
2018-11-04T22:22:33.836Z,53.08
2018-11-04T22:25:01.948Z,50.30
2018-11-04T22:27:30.157Z,55.10
2018-11-04T22:29:58.243Z,52.70
2018-11-04T22:32:26.440Z,54.83
2018-11-04T22:34:54.584Z,48.90
2018-11-04T22:37:22.689Z,46.40
2018-11-04T22:39:50.818Z,52.03
2018-11-04T22:42:19.036Z,52.08
2018-11-04T22:44:47.072Z,53.13
2018-11-04T22:47:15.268Z,53.10
2018-11-04T22:49:43.383Z,55.10
2018-11-04T22:52:11.472Z,52.15
2018-11-04T22:54:39.587Z,53.13
2018-11-04T22:57:07.685Z,53.00
2018-11-04T22:59:35.792Z,51.33
2018-11-04T23:02:03.907Z,54.25
2018-11-04T23:04:37.600Z,52.83
2018-11-04T23:07:05.724Z,52.75
2018-11-04T23:09:33.868Z,50.95
2018-11-04T23:12:01.987Z,51.10
2018-11-04T23:14:30.080Z,50.78
2018-11-04T23:16:58.184Z,51.23
2018-11-04T23:19:26.283Z,56.18
2018-11-04T23:21:54.420Z,54.98
2018-11-04T23:24:22.515Z,54.15
2018-11-04T23:26:50.663Z,57.85
2018-11-04T23:29:18.713Z,50.67
2018-11-04T23:31:46.812Z,52.20
2018-11-04T23:34:14.936Z,51.98
2018-11-04T23:36:43.043Z,53.63
2018-11-04T23:39:11.207Z,50.15
2018-11-04T23:41:39.460Z,51.77
2018-11-04T23:44:07.904Z,56.02
2018-11-04T23:46:36.136Z,52.65
2018-11-04T23:49:04.520Z,50.70
2018-11-04T23:51:32.636Z,56.18
2018-11-04T23:54:00.740Z,50.63
2018-11-04T23:56:28.849Z,55.92
2018-11-04T23:58:56.940Z,50.95
